Time;durP1;ratioP1;P1;durP2;ratioP2;P2;SDS_P1;SDS_P2;PMS_P1;PMS_P2;Temp;Humidity;BMP_temperature;BMP_pressure;BME280_temperature;BME280_humidity;BME280_pressure;Samples;Min_cycle;Max_cycle;Signal;HPM_P1;HPM_P2
2023/01/03 00:01:20;;;;;;;3.05;1.20;;;25.30;51.00;;;;;;5033208;28;20208;-51
2023/01/03 00:03:51;;;;;;;2.78;1.17;;;25.40;51.00;;;;;;5033300;28;20223;-50
2023/01/03 00:06:23;;;;;;;3.80;1.70;;;25.40;51.00;;;;;;5033148;28;20200;-45
2023/01/03 00:08:56;;;;;;;4.57;1.75;;;25.40;51.10;;;;;;5033118;28;20224;-46
2023/01/03 00:14:12;;;;;;;2.65;1.20;;;25.50;50.80;;;;;;5052478;28;20211;-54
2023/01/03 00:16:43;;;;;;;4.65;1.35;;;25.50;50.80;;;;;;5052600;28;20195;-48
2023/01/03 00:19:16;;;;;;;3.63;1.52;;;25.60;50.70;;;;;;5052615;28;20188;-49
2023/01/03 00:21:47;;;;;;;2.45;1.10;;;25.60;50.70;;;;;;5052329;28;20200;-46
2023/01/03 00:24:19;;;;;;;4.13;1.40;;;25.60;50.70;;;;;;5040427;28;20227;-49
2023/01/03 00:26:50;;;;;;;4.80;1.38;;;25.60;50.70;;;;;;5032684;28;20202;-50
2023/01/03 00:29:21;;;;;;;3.00;1.42;;;25.70;50.80;;;;;;5032422;28;20204;-46
2023/01/03 00:31:51;;;;;;;1.88;1.23;;;25.70;50.80;;;;;;5032248;28;20204;-49
2023/01/03 00:34:22;;;;;;;3.25;1.30;;;25.70;50.80;;;;;;5053253;23;20566;-42
2023/01/03 00:36:53;;;;;;;3.78;1.40;;;25.70;50.80;;;;;;5052533;28;20199;-39
2023/01/03 00:39:26;;;;;;;2.90;1.35;;;25.80;50.80;;;;;;5052562;28;20195;-42
2023/01/03 00:41:57;;;;;;;2.92;1.50;;;25.80;51.40;;;;;;5052116;28;20202;-41
2023/01/03 00:44:27;;;;;;;3.58;1.50;;;25.80;50.80;;;;;;5051804;28;20227;-38
2023/01/03 00:46:58;;;;;;;3.58;1.50;;;25.90;50.80;;;;;;5051432;28;20217;-42
2023/01/03 00:49:29;;;;;;;4.97;1.30;;;25.90;50.70;;;;;;5051432;28;20229;-40
2023/01/03 00:51:59;;;;;;;5.97;1.60;;;25.90;50.60;;;;;;5051470;28;20195;-44
2023/01/03 00:54:32;;;;;;;6.40;1.70;;;25.90;50.60;;;;;;5047899;28;20594;-42
2023/01/03 00:57:03;;;;;;;4.57;1.42;;;26.00;50.60;;;;;;5052050;28;20199;-41
2023/01/03 00:59:33;;;;;;;4.20;1.23;;;26.00;50.50;;;;;;5051694;28;20206;-43
2023/01/03 01:02:04;;;;;;;3.63;1.45;;;26.00;50.50;;;;;;5051974;28;20203;-43
2023/01/03 01:04:35;;;;;;;3.28;1.40;;;26.10;50.50;;;;;;5051745;28;20382;-41
2023/01/03 01:07:06;;;;;;;2.97;1.30;;;26.10;50.50;;;;;;5051524;28;20195;-42
2023/01/03 01:09:39;;;;;;;3.22;1.60;;;26.10;50.40;;;;;;5051467;28;20278;-41
2023/01/03 01:12:10;;;;;;;3.38;1.35;;;26.20;50.40;;;;;;5051226;28;20200;-42
2023/01/03 01:14:41;;;;;;;3.60;1.35;;;26.20;50.40;;;;;;5050981;28;20215;-41
2023/01/03 01:17:12;;;;;;;3.42;1.50;;;26.20;50.40;;;;;;5051465;28;20249;-41
2023/01/03 01:19:44;;;;;;;3.50;1.67;;;26.20;50.30;;;;;;5051507;28;20218;-41
2023/01/03 01:22:15;;;;;;;4.68;1.45;;;26.20;50.30;;;;;;5051290;28;20206;-41
2023/01/03 01:24:48;;;;;;;3.15;1.40;;;26.20;50.40;;;;;;5050917;28;20223;-40
2023/01/03 01:27:19;;;;;;;2.80;1.20;;;26.30;50.50;;;;;;5051163;28;20195;-41
2023/01/03 01:29:50;;;;;;;2.45;1.13;;;26.30;50.40;;;;;;5051013;28;20671;-44
2023/01/03 01:32:20;;;;;;;2.85;1.55;;;26.40;50.30;;;;;;5050239;28;20206;-44
2023/01/03 01:34:51;;;;;;;4.55;1.40;;;26.40;50.20;;;;;;5051178;28;20223;-40
2023/01/03 01:37:22;;;;;;;3.28;1.52;;;26.40;50.20;;;;;;5051759;28;20199;-41
2023/01/03 01:39:54;;;;;;;2.83;1.20;;;26.40;50.20;;;;;;5051112;28;20199;-40
2023/01/03 01:45:15;;;;;;;2.97;1.50;;;26.50;50.00;;;;;;5050565;28;20218;-44
2023/01/03 01:47:52;;;;;;;2.72;1.30;;;26.50;50.00;;;;;;5051007;28;20701;-41
2023/01/03 01:50:26;;;;;;;2.40;1.30;;;26.60;50.00;;;;;;5048148;28;20187;-44
2023/01/03 01:53:01;;;;;;;3.70;1.50;;;26.60;50.00;;;;;;5050446;28;20199;-43
2023/01/03 01:55:37;;;;;;;2.95;1.05;;;26.60;50.00;;;;;;5050329;28;20219;-39
2023/01/03 01:58:08;;;;;;;2.90;1.30;;;26.60;49.90;;;;;;5050508;28;20199;-41
2023/01/03 02:00:41;;;;;;;4.70;1.60;;;26.60;49.90;;;;;;5050651;28;20234;-40
2023/01/03 02:03:12;;;;;;;3.92;1.40;;;26.70;49.90;;;;;;5050717;28;20209;-42
2023/01/03 02:05:48;;;;;;;4.28;1.35;;;26.70;49.80;;;;;;5050589;28;20202;-42
2023/01/03 02:08:19;;;;;;;3.38;1.52;;;26.70;49.80;;;;;;5044803;28;20218;-40
2023/01/03 02:11:14;;;;;;;2.50;1.17;;;26.70;49.80;;;;;;5050672;28;20198;-39
2023/01/03 02:13:53;;;;;;;2.55;1.23;;;26.80;49.60;;;;;;5050643;28;20215;-42
2023/01/03 02:16:47;;;;;;;3.15;1.40;;;26.80;49.60;;;;;;5050520;28;20195;-42
2023/01/03 02:19:46;;;;;;;4.43;1.58;;;26.90;49.50;;;;;;5049873;28;20246;-39
2023/01/03 02:22:57;;;;;;;1.88;1.25;;;26.90;49.30;;;;;;5050747;28;20200;-44
2023/01/03 02:26:03;;;;;;;1.85;0.95;;;26.90;49.30;;;;;;5027933;28;20224;-45
2023/01/03 02:29:07;;;;;;;3.85;1.30;;;26.90;49.40;;;;;;5030745;28;20236;-39
2023/01/03 02:31:46;;;;;;;3.55;1.30;;;27.00;49.40;;;;;;5030611;28;20196;-41
2023/01/03 02:34:26;;;;;;;3.17;1.38;;;27.00;49.30;;;;;;5030639;28;20224;-43
2023/01/03 02:37:08;;;;;;;3.05;1.10;;;27.00;49.30;;;;;;5031068;28;20200;-44
2023/01/03 02:39:48;;;;;;;2.50;1.30;;;27.00;49.20;;;;;;5030420;28;20571;-43
2023/01/03 02:45:17;;;;;;;4.07;1.40;;;27.10;49.10;;;;;;5030164;28;20589;-44
2023/01/03 02:47:55;;;;;;;3.80;1.52;;;27.10;49.00;;;;;;5030259;28;20211;-40
2023/01/03 02:50:29;;;;;;;2.42;1.23;;;27.10;48.90;;;;;;5030522;28;20200;-43
2023/01/03 02:53:03;;;;;;;2.53;1.20;;;27.20;48.90;;;;;;5031837;28;20226;-42
2023/01/03 02:55:36;;;;;;;3.35;1.40;;;27.20;49.00;;;;;;5050408;28;20219;-40
2023/01/03 02:58:11;;;;;;;3.78;1.40;;;27.20;49.00;;;;;;5052855;28;20202;-38
2023/01/03 03:00:44;;;;;;;3.38;1.30;;;27.30;49.00;;;;;;5051237;28;20210;-43
2023/01/03 03:03:24;;;;;;;2.95;1.33;;;27.30;49.00;;;;;;5054227;28;20195;-42
2023/01/03 03:06:01;;;;;;;2.90;1.42;;;27.30;48.90;;;;;;5054242;28;20195;-43
2023/01/03 03:08:32;;;;;;;5.95;1.48;;;27.30;49.00;;;;;;5053988;28;20219;-42
2023/01/03 03:13:53;;;;;;;4.40;1.40;;;27.40;49.00;;;;;;5053467;28;20285;-40
2023/01/03 03:25:23;;;;;;;2.88;1.67;;;27.60;48.70;;;;;;5053817;28;20238;-40
2023/01/03 03:30:45;;;;;;;3.45;1.30;;;27.60;48.50;;;;;;5053550;28;20682;-42
2023/01/03 03:33:17;;;;;;;2.90;1.20;;;27.70;48.70;;;;;;5053293;28;20564;-40
2023/01/03 03:36:01;;;;;;;3.22;1.20;;;27.70;49.30;;;;;;5053642;28;20195;-47
2023/01/03 03:38:36;;;;;;;2.33;1.20;;;27.70;48.70;;;;;;5053482;28;20200;-41
2023/01/03 03:47:09;;;;;;;2.30;1.35;;;27.90;48.80;;;;;;5053614;28;20230;-42
2023/01/03 03:49:43;;;;;;;3.70;1.58;;;27.80;48.60;;;;;;5053355;28;20725;-41
2023/01/03 03:52:18;;;;;;;3.65;1.50;;;27.90;48.70;;;;;;5051334;28;20565;-38
2023/01/03 03:54:55;;;;;;;3.70;1.25;;;27.90;48.60;;;;;;5032995;28;20220;-40
2023/01/03 03:57:30;;;;;;;2.85;1.10;;;28.00;48.70;;;;;;5047068;28;20199;-40
2023/01/03 04:00:05;;;;;;;4.18;1.40;;;28.00;48.60;;;;;;5053044;28;20229;-42
2023/01/03 04:02:37;;;;;;;5.13;1.85;;;28.00;48.50;;;;;;5052950;28;20195;-39
2023/01/03 04:05:11;;;;;;;3.92;1.55;;;28.00;48.40;;;;;;5047625;28;20219;-40
2023/01/03 04:07:44;;;;;;;3.50;1.58;;;28.10;48.40;;;;;;5052360;28;20202;-41
2023/01/03 04:10:19;;;;;;;3.75;1.65;;;28.10;48.40;;;;;;5052512;28;20227;-39
2023/01/03 04:12:51;;;;;;;3.92;1.60;;;28.10;48.30;;;;;;5053062;28;20272;-42
2023/01/03 04:15:22;;;;;;;3.25;1.42;;;28.20;48.30;;;;;;5052613;28;20227;-39
2023/01/03 04:17:53;;;;;;;4.00;1.55;;;28.20;48.20;;;;;;5052655;28;20218;-42
2023/01/03 04:20:23;;;;;;;4.88;1.73;;;28.20;48.30;;;;;;5052470;28;20195;-42
2023/01/03 04:22:56;;;;;;;4.03;1.60;;;28.30;48.30;;;;;;5052698;28;20206;-43
2023/01/03 04:25:27;;;;;;;2.58;1.42;;;28.30;48.30;;;;;;5052846;28;20694;-42
2023/01/03 04:27:58;;;;;;;3.10;1.38;;;28.30;48.90;;;;;;5052057;28;20199;-38
2023/01/03 04:30:29;;;;;;;3.80;1.42;;;28.40;48.30;;;;;;5051880;28;20199;-40
2023/01/03 04:33:03;;;;;;;2.60;1.50;;;28.40;48.20;;;;;;5051685;28;20196;-41
2023/01/03 04:35:34;;;;;;;2.85;1.20;;;28.40;48.10;;;;;;5052354;28;20751;-43
2023/01/03 04:38:07;;;;;;;3.45;1.50;;;28.50;48.10;;;;;;5052676;28;20196;-40
2023/01/03 04:40:39;;;;;;;5.20;1.52;;;28.50;48.00;;;;;;5052104;28;20686;-41
2023/01/03 04:45:57;;;;;;;4.80;1.63;;;28.60;47.90;;;;;;5051790;28;20242;-41
2023/01/03 04:48:28;;;;;;;3.63;1.67;;;28.60;47.90;;;;;;5051527;28;20219;-43
2023/01/03 04:51:00;;;;;;;4.65;1.83;;;28.60;47.90;;;;;;5051952;28;20203;-59
2023/01/03 04:53:32;;;;;;;8.23;2.05;;;28.60;47.50;;;;;;5051555;28;20199;-53
2023/01/03 04:56:03;;;;;;;7.78;2.17;;;28.60;46.60;;;;;;5051662;28;20257;-61
2023/01/03 04:58:34;;;;;;;12.57;3.30;;;28.50;46.20;;;;;;5050577;28;20202;-50
2023/01/03 05:01:06;;;;;;;11.27;2.67;;;28.30;46.40;;;;;;5051578;28;20196;-63
2023/01/03 05:03:38;;;;;;;18.00;3.92;;;28.20;46.40;;;;;;5051159;28;20219;-55
2023/01/03 05:06:10;;;;;;;13.20;2.55;;;28.10;46.70;;;;;;5051461;28;20199;-45
2023/01/03 05:08:45;;;;;;;10.23;2.47;;;28.00;46.90;;;;;;5049055;28;20250;-60
2023/01/03 05:11:16;;;;;;;11.73;2.90;;;27.90;47.10;;;;;;5049669;28;20187;-61
2023/01/03 05:13:47;;;;;;;8.63;2.78;;;27.80;47.10;;;;;;5051294;28;20224;-54
2023/01/03 05:16:18;;;;;;;10.90;2.70;;;27.70;47.30;;;;;;5051460;28;20554;-63
2023/01/03 05:18:52;;;;;;;10.95;2.65;;;27.60;47.30;;;;;;5050825;28;20199;-58
2023/01/03 05:27:01;;;;;;;10.68;3.20;;;27.40;48.20;;;;;;5051346;28;20309;-60
2023/01/03 05:29:33;;;;;;;10.73;2.85;;;27.40;48.20;;;;;;5051318;28;20852;-56
2023/01/03 05:32:04;;;;;;;10.25;3.00;;;27.30;48.40;;;;;;5050873;28;20196;-64
2023/01/03 05:34:34;;;;;;;9.85;2.97;;;27.30;48.50;;;;;;5050533;28;20599;-65
2023/01/03 05:37:05;;;;;;;7.45;2.63;;;27.20;48.40;;;;;;5051309;28;20204;-67
2023/01/03 05:39:38;;;;;;;10.60;2.85;;;27.10;48.50;;;;;;5051402;28;20566;-65
2023/01/03 05:42:08;;;;;;;10.25;3.03;;;27.10;48.80;;;;;;5051342;28;20195;-62
2023/01/03 05:44:39;;;;;;;11.45;2.90;;;27.10;48.90;;;;;;5051106;28;20220;-65
2023/01/03 05:47:10;;;;;;;8.65;2.80;;;27.00;48.90;;;;;;5050895;28;20202;-64
2023/01/03 05:49:40;;;;;;;11.10;2.80;;;27.00;48.90;;;;;;5050376;28;20238;-65
2023/01/03 05:52:11;;;;;;;10.88;3.10;;;27.00;49.00;;;;;;5050957;28;20865;-59
2023/01/03 05:54:44;;;;;;;13.52;2.80;;;26.90;49.30;;;;;;5051167;28;20226;-60
2023/01/03 05:57:14;;;;;;;12.20;3.25;;;26.90;49.30;;;;;;5051121;28;20203;-56
2023/01/03 05:59:45;;;;;;;11.95;3.20;;;26.80;49.40;;;;;;5043084;28;20195;-57
2023/01/03 06:02:16;;;;;;;11.00;2.95;;;26.80;49.50;;;;;;5039451;28;20196;-66
2023/01/03 06:04:46;;;;;;;15.38;3.28;;;26.80;49.70;;;;;;5050821;28;20219;-59
2023/01/03 06:07:17;;;;;;;10.48;2.70;;;26.70;49.70;;;;;;5049783;28;20199;-43
2023/01/03 06:09:49;;;;;;;8.55;2.88;;;26.70;49.70;;;;;;5038904;28;20220;-45
2023/01/03 06:12:20;;;;;;;9.23;2.83;;;26.70;49.60;;;;;;5044325;28;20204;-42
2023/01/03 06:14:51;;;;;;;8.55;2.35;;;26.70;49.60;;;;;;5028527;28;20212;-39
2023/01/03 06:20:09;;;;;;;7.65;2.35;;;26.80;49.70;;;;;;5029972;28;20242;-42
2023/01/03 06:22:40;;;;;;;8.98;2.60;;;26.90;49.70;;;;;;5029349;28;20546;-43
2023/01/03 06:25:12;;;;;;;6.40;2.47;;;26.90;49.60;;;;;;5029692;28;20212;-43
2023/01/03 06:27:43;;;;;;;9.23;2.90;;;26.90;49.60;;;;;;5046802;28;20204;-43
2023/01/03 06:30:15;;;;;;;6.78;2.28;;;27.00;49.50;;;;;;5048797;28;20259;-42
2023/01/03 06:32:46;;;;;;;7.57;2.20;;;27.00;49.50;;;;;;5053465;28;20226;-41
2023/01/03 06:35:17;;;;;;;5.75;2.35;;;27.10;49.40;;;;;;5053072;28;20746;-43
2023/01/03 06:37:48;;;;;;;6.20;2.20;;;27.10;49.30;;;;;;5040971;28;20191;-41
2023/01/03 06:40:20;;;;;;;7.25;2.17;;;27.20;49.30;;;;;;5042126;28;20184;-45
2023/01/03 06:42:51;;;;;;;5.30;1.92;;;27.20;49.20;;;;;;5042133;28;20189;-42
2023/01/03 06:53:45;;;;;;;4.40;1.83;;;27.40;48.90;;;;;;5033520;28;20242;-46
2023/01/03 06:56:17;;;;;;;5.10;1.90;;;27.50;48.90;;;;;;5037776;28;20200;-42
2023/01/03 06:58:48;;;;;;;5.93;2.20;;;27.50;48.90;;;;;;5053016;28;20570;-47
2023/01/03 07:01:18;;;;;;;7.05;2.35;;;27.60;48.90;;;;;;5053490;28;20200;-39
2023/01/03 07:03:49;;;;;;;5.20;2.03;;;27.60;48.80;;;;;;5053020;28;20215;-47
2023/01/03 07:06:20;;;;;;;3.40;2.00;;;27.60;48.70;;;;;;5053338;28;20663;-39
2023/01/03 07:08:50;;;;;;;5.97;2.30;;;27.60;48.70;;;;;;5053024;28;20195;-45
2023/01/03 07:11:24;;;;;;;6.88;2.00;;;27.60;48.60;;;;;;5052519;28;20199;-47
2023/01/03 07:13:59;;;;;;;5.53;2.22;;;27.60;48.50;;;;;;5053621;28;20764;-42
2023/01/03 07:16:30;;;;;;;4.45;2.20;;;27.70;48.50;;;;;;5052683;28;20203;-44
2023/01/03 07:19:01;;;;;;;6.30;2.25;;;27.70;48.40;;;;;;5050134;28;20192;-47
2023/01/03 07:21:33;;;;;;;6.60;2.13;;;27.70;48.40;;;;;;5052961;28;20563;-44
2023/01/03 07:24:05;;;;;;;4.50;1.92;;;27.70;48.30;;;;;;5052481;28;20230;-45
2023/01/03 07:26:38;;;;;;;4.53;2.03;;;27.70;48.30;;;;;;5052858;28;20196;-41
2023/01/03 07:29:11;;;;;;;6.50;2.40;;;27.70;48.30;;;;;;5052941;28;20195;-45
2023/01/03 07:31:43;;;;;;;6.20;2.30;;;27.80;48.30;;;;;;5052953;28;20570;-45
2023/01/03 07:34:13;;;;;;;4.88;1.77;;;27.80;48.30;;;;;;5052677;28;20228;-43
2023/01/03 07:36:44;;;;;;;4.80;2.05;;;27.80;48.30;;;;;;5053319;28;20206;-44
2023/01/03 07:39:14;;;;;;;4.38;2.00;;;27.80;48.30;;;;;;5053350;28;20651;-41
2023/01/03 07:44:33;;;;;;;6.43;2.13;;;27.80;48.20;;;;;;5053160;28;20218;-42
2023/01/03 07:47:04;;;;;;;5.53;2.03;;;27.80;48.20;;;;;;5052814;28;20207;-45
2023/01/03 07:49:35;;;;;;;5.28;1.92;;;27.80;48.20;;;;;;5052701;28;20234;-47
2023/01/03 07:52:06;;;;;;;4.65;2.30;;;27.80;48.20;;;;;;5038546;28;20215;-45
2023/01/03 07:54:37;;;;;;;5.43;2.20;;;27.70;48.20;;;;;;5051987;28;20215;-47
2023/01/03 07:57:09;;;;;;;5.30;2.03;;;27.70;48.70;;;;;;5052538;28;20195;-43
2023/01/03 07:59:40;;;;;;;5.45;2.08;;;27.70;48.20;;;;;;5041787;28;20196;-45
2023/01/03 08:02:11;;;;;;;5.95;2.13;;;27.70;48.10;;;;;;5038389;28;20207;-42
2023/01/03 08:04:42;;;;;;;5.10;2.28;;;27.70;48.10;;;;;;5039762;28;20216;-43
2023/01/03 08:07:12;;;;;;;4.70;2.10;;;27.70;48.10;;;;;;5041542;28;20207;-47
2023/01/03 08:15:18;;;;;;;4.53;1.90;;;27.70;48.00;;;;;;5032552;28;20239;-43
2023/01/03 08:17:49;;;;;;;5.07;2.10;;;27.70;48.00;;;;;;5032375;28;20192;-45
2023/01/03 08:20:20;;;;;;;5.28;2.10;;;27.70;48.00;;;;;;5044925;28;20206;-45
2023/01/03 08:22:50;;;;;;;5.32;2.10;;;27.70;48.00;;;;;;5052439;28;20682;-44
2023/01/03 08:25:21;;;;;;;5.00;1.92;;;27.60;48.00;;;;;;5052133;28;20212;-44
2023/01/03 08:27:53;;;;;;;5.70;1.98;;;27.60;48.00;;;;;;5051998;28;20199;-44
2023/01/03 08:30:24;;;;;;;5.50;2.22;;;27.60;48.00;;;;;;5050810;28;20230;-42
2023/01/03 08:32:56;;;;;;;3.58;1.70;;;27.60;48.00;;;;;;5051136;28;20651;-45
2023/01/03 08:35:30;;;;;;;6.10;2.55;;;27.60;48.00;;;;;;5051487;28;20216;-43
2023/01/03 08:38:03;;;;;;;5.28;1.83;;;27.60;48.10;;;;;;5051565;28;20192;-43
2023/01/03 08:40:36;;;;;;;4.35;1.77;;;27.50;48.00;;;;;;5051949;28;20587;-45
2023/01/03 08:43:09;;;;;;;5.35;2.10;;;27.50;48.00;;;;;;5051970;28;20318;-43
2023/01/03 08:45:41;;;;;;;5.20;2.10;;;27.50;48.00;;;;;;5051487;28;20215;-44
2023/01/03 08:48:13;;;;;;;3.20;1.80;;;27.50;48.00;;;;;;5051524;28;20200;-42
2023/01/03 08:50:44;;;;;;;4.78;2.00;;;27.40;47.90;;;;;;5051847;28;20223;-41
2023/01/03 08:53:15;;;;;;;3.85;1.70;;;27.40;48.00;;;;;;5051715;28;20200;-43
2023/01/03 08:55:45;;;;;;;3.08;1.80;;;27.40;48.00;;;;;;5051383;28;20195;-43
2023/01/03 08:58:18;;;;;;;3.72;1.75;;;27.40;48.00;;;;;;5051082;28;20195;-43
2023/01/03 09:00:49;;;;;;;3.50;1.70;;;27.30;47.90;;;;;;5050922;28;20201;-42
2023/01/03 09:03:19;;;;;;;5.43;1.88;;;27.30;47.90;;;;;;5051511;28;20211;-45
2023/01/03 09:05:50;;;;;;;4.47;2.10;;;27.30;47.90;;;;;;5051787;28;20199;-42
2023/01/03 09:08:21;;;;;;;4.72;1.98;;;27.30;47.90;;;;;;5051536;28;20199;-44
2023/01/03 09:10:51;;;;;;;12.90;3.85;;;27.30;47.90;;;;;;5051715;28;20234;-57
2023/01/03 09:13:24;;;;;;;18.08;4.30;;;27.20;47.00;;;;;;5034576;28;20195;-48
2023/01/03 09:16:03;;;;;;;14.95;4.05;;;27.10;46.60;;;;;;5031676;28;20211;-44
2023/01/03 09:18:33;;;;;;;15.77;4.38;;;26.90;46.70;;;;;;5031593;28;20195;-44
2023/01/03 09:21:04;;;;;;;9.63;3.13;;;26.60;46.90;;;;;;5030957;28;20196;-39
2023/01/03 09:23:36;;;;;;;7.13;3.15;;;26.50;46.40;;;;;;5031170;28;20207;-46
2023/01/03 09:26:07;;;;;;;9.95;3.65;;;26.40;45.80;;;;;;5038949;28;20196;-46
2023/01/03 09:28:39;;;;;;;9.60;2.83;;;26.30;45.70;;;;;;5040077;28;20586;-42
2023/01/03 09:31:10;;;;;;;9.40;2.88;;;26.20;45.90;;;;;;5039124;28;20228;-41
2023/01/03 09:33:41;;;;;;;10.90;3.30;;;26.20;46.00;;;;;;5044338;28;20223;-46
2023/01/03 09:36:12;;;;;;;8.13;3.20;;;26.20;46.10;;;;;;5038572;28;20596;-40
2023/01/03 09:38:42;;;;;;;7.22;3.35;;;26.10;46.10;;;;;;5044775;28;20212;-44
2023/01/03 09:41:20;;;;;;;8.18;2.70;;;26.10;46.80;;;;;;5032747;28;20203;-44
2023/01/03 09:43:54;;;;;;;6.35;2.30;;;26.10;46.30;;;;;;5049832;28;20939;-41
2023/01/03 09:46:26;;;;;;;6.45;2.80;;;26.10;46.30;;;;;;5049920;28;20202;-44
2023/01/03 09:48:58;;;;;;;7.78;2.80;;;26.10;46.30;;;;;;5046666;28;20195;-42
2023/01/03 10:06:23;;;;;;;8.68;2.63;;;26.00;46.50;;;;;;5029807;28;20309;-40
2023/01/03 10:09:08;;;;;;;6.25;2.40;;;26.00;46.60;;;;;;5030530;28;20196;-41
2023/01/03 10:11:52;;;;;;;7.65;2.83;;;25.90;46.60;;;;;;5031747;28;20223;-42
2023/01/03 10:14:34;;;;;;;7.70;2.90;;;25.90;46.60;;;;;;5029884;28;20220;-42
2023/01/03 10:17:13;;;;;;;8.93;2.72;;;25.90;46.70;;;;;;5029110;28;20200;-42
2023/01/03 10:20:11;;;;;;;7.68;2.63;;;25.90;46.70;;;;;;5030008;28;20200;-39
2023/01/03 10:22:42;;;;;;;8.52;3.15;;;25.90;46.70;;;;;;5024964;28;20204;-47
2023/01/03 10:25:15;;;;;;;10.13;3.28;;;25.90;46.90;;;;;;5029379;28;20724;-45
2023/01/03 10:27:50;;;;;;;8.35;2.92;;;25.90;47.00;;;;;;5045688;28;20210;-40
2023/01/03 10:30:23;;;;;;;6.57;2.67;;;25.80;47.10;;;;;;5049784;28;20211;-46
2023/01/03 10:33:22;;;;;;;6.95;2.72;;;25.80;47.30;;;;;;5049216;28;20203;-41
2023/01/03 10:35:52;;;;;;;9.73;3.97;;;25.80;47.40;;;;;;5049071;28;20206;-43
2023/01/03 10:38:24;;;;;;;6.60;2.80;;;25.80;47.60;;;;;;5049701;28;20281;-43
2023/01/03 10:40:58;;;;;;;6.97;3.13;;;25.80;47.70;;;;;;5049542;28;20206;-44
2023/01/03 10:43:40;;;;;;;9.00;2.95;;;25.80;47.80;;;;;;5049782;28;20195;-46
2023/01/03 10:46:18;;;;;;;8.55;3.13;;;25.80;47.80;;;;;;5049670;28;20191;-41
2023/01/03 10:48:52;;;;;;;7.80;3.17;;;25.70;47.80;;;;;;5050169;28;20206;-40
2023/01/03 10:51:32;;;;;;;6.05;3.10;;;25.70;47.80;;;;;;5048851;28;20230;-41
2023/01/03 10:54:10;;;;;;;10.23;3.15;;;25.70;47.90;;;;;;5049348;28;20765;-43
2023/01/03 10:56:42;;;;;;;8.40;3.10;;;25.70;47.90;;;;;;5049394;28;20200;-41
2023/01/03 10:59:22;;;;;;;6.22;3.22;;;25.70;48.60;;;;;;5049337;28;20318;-41
2023/01/03 11:02:01;;;;;;;8.32;3.47;;;25.70;48.00;;;;;;5049624;28;20195;-40
2023/01/03 11:04:34;;;;;;;7.32;3.67;;;25.70;48.10;;;;;;5049962;28;20226;-42
2023/01/03 11:07:16;;;;;;;6.88;3.53;;;25.70;48.10;;;;;;5049212;28;20199;-41
2023/01/03 11:09:51;;;;;;;9.75;3.55;;;25.60;48.30;;;;;;5041835;28;20254;-39
2023/01/03 11:12:29;;;;;;;7.50;3.65;;;25.60;48.60;;;;;;5044217;28;20226;-44
2023/01/03 11:15:01;;;;;;;8.75;3.60;;;25.60;48.60;;;;;;5048300;28;20873;-43
2023/01/03 11:17:32;;;;;;;6.50;3.55;;;25.60;48.70;;;;;;5049700;28;20288;-41
2023/01/03 11:20:18;;;;;;;7.05;3.42;;;25.50;48.60;;;;;;5053523;28;20670;-40
2023/01/03 11:22:50;;;;;;;6.60;3.40;;;25.50;48.50;;;;;;5052695;28;20565;-42
2023/01/03 11:25:40;;;;;;;7.53;3.53;;;25.50;48.60;;;;;;5052754;28;20215;-42
2023/01/03 11:28:38;;;;;;;6.80;3.35;;;25.50;48.70;;;;;;5032484;28;20649;-46
2023/01/03 11:31:11;;;;;;;6.75;3.35;;;25.40;48.60;;;;;;5044218;28;20219;-40
2023/01/03 11:33:57;;;;;;;9.38;3.53;;;25.40;48.60;;;;;;5053072;28;21144;-42
2023/01/03 11:36:39;;;;;;;5.68;3.20;;;25.40;48.50;;;;;;5052411;28;20667;-41
2023/01/03 11:39:34;;;;;;;7.15;3.65;;;25.40;48.50;;;;;;5052580;28;20199;-47
2023/01/03 11:42:28;;;;;;;7.20;3.22;;;25.40;48.60;;;;;;5052448;28;20207;-42
2023/01/03 11:45:46;;;;;;;6.18;3.30;;;25.30;48.40;;;;;;5052328;28;20215;-43
2023/01/03 11:48:38;;;;;;;8.20;3.53;;;25.30;48.40;;;;;;5052707;28;20212;-42
2023/01/03 11:51:24;;;;;;;6.20;2.88;;;25.30;48.40;;;;;;5048814;28;20234;-40
2023/01/03 11:54:08;;;;;;;5.78;3.30;;;25.30;48.50;;;;;;5045840;28;20267;-46
2023/01/03 11:56:42;;;;;;;4.82;3.13;;;25.20;48.50;;;;;;5041846;28;20196;-40
2023/01/03 11:59:45;;;;;;;6.13;3.30;;;25.20;48.50;;;;;;5039992;28;20668;-41
2023/01/03 12:02:43;;;;;;;6.05;3.03;;;25.10;48.50;;;;;;5041869;28;20195;-45
2023/01/03 12:05:47;;;;;;;5.32;3.22;;;25.10;48.60;;;;;;5040773;28;20212;-43
2023/01/03 12:08:57;;;;;;;5.80;2.95;;;25.10;48.60;;;;;;5035489;28;20199;-43
2023/01/03 12:12:01;;;;;;;5.45;3.25;;;25.10;48.60;;;;;;5042751;28;20234;-42
2023/01/03 12:14:39;;;;;;;4.93;2.85;;;25.00;48.50;;;;;;5037172;28;20211;-44
2023/01/03 12:17:14;;;;;;;6.18;3.00;;;25.00;48.50;;;;;;5032351;28;20203;-43
2023/01/03 12:19:47;;;;;;;4.75;2.83;;;25.00;48.50;;;;;;5032354;28;20200;-42
2023/01/03 12:22:23;;;;;;;6.55;3.22;;;24.90;48.50;;;;;;5032525;28;20196;-44
2023/01/03 12:24:57;;;;;;;4.65;3.10;;;25.00;48.50;;;;;;5032640;28;20231;-44
2023/01/03 12:27:35;;;;;;;3.95;2.60;;;24.90;48.50;;;;;;5046589;28;20222;-42
2023/01/03 12:30:17;;;;;;;6.78;2.95;;;24.90;48.50;;;;;;5051942;28;20206;-39
2023/01/03 12:32:52;;;;;;;5.07;2.70;;;24.90;48.50;;;;;;5051971;28;20203;-41
2023/01/03 12:35:32;;;;;;;5.35;3.10;;;24.90;48.60;;;;;;5051988;28;20215;-45
2023/01/03 12:38:04;;;;;;;3.40;2.40;;;24.90;48.70;;;;;;5051848;28;20199;-44
2023/01/03 12:40:40;;;;;;;4.65;2.60;;;24.80;48.60;;;;;;5052065;28;20200;-42
2023/01/03 12:43:20;;;;;;;4.72;2.80;;;24.80;48.70;;;;;;5051615;28;20537;-46
2023/01/03 12:45:57;;;;;;;5.57;3.10;;;24.80;48.70;;;;;;5051417;28;20201;-46
2023/01/03 12:48:51;;;;;;;3.42;2.22;;;24.70;48.70;;;;;;5051811;28;20203;-45
2023/01/03 12:51:24;;;;;;;3.42;2.40;;;24.70;48.70;;;;;;5052392;28;20223;-42
2023/01/03 12:54:15;;;;;;;6.25;2.88;;;24.70;48.70;;;;;;5051475;28;20263;-43
2023/01/03 12:57:07;;;;;;;4.25;2.28;;;24.60;48.70;;;;;;5051260;28;20204;-40
2023/01/03 13:00:01;;;;;;;4.55;2.67;;;24.70;48.70;;;;;;5051981;28;20212;-42
2023/01/03 13:02:45;;;;;;;4.30;2.35;;;24.60;48.70;;;;;;5049696;28;20655;-41
2023/01/03 13:05:21;;;;;;;4.72;2.88;;;24.60;48.60;;;;;;5051605;28;20691;-40
2023/01/03 13:07:59;;;;;;;5.13;2.42;;;24.60;48.70;;;;;;5051466;28;20655;-41
2023/01/03 13:10:33;;;;;;;4.30;2.63;;;24.50;48.70;;;;;;5051618;28;20199;-44
2023/01/03 13:13:06;;;;;;;3.72;2.58;;;24.50;48.70;;;;;;5051530;28;20206;-42
2023/01/03 13:15:38;;;;;;;4.95;2.50;;;24.50;48.70;;;;;;5051413;28;20215;-43
2023/01/03 13:18:33;;;;;;;3.65;2.35;;;24.50;48.70;;;;;;5037964;28;20207;-46
2023/01/03 13:21:24;;;;;;;4.80;2.50;;;24.40;48.70;;;;;;5031343;28;20212;-45
2023/01/03 13:24:01;;;;;;;4.47;2.13;;;24.40;48.70;;;;;;5031019;28;20572;-40
2023/01/03 13:26:32;;;;;;;3.85;2.10;;;24.40;48.70;;;;;;5037583;28;20286;-42
2023/01/03 13:29:37;;;;;;;4.07;2.30;;;24.30;48.70;;;;;;5051092;28;20200;-45
2023/01/03 13:32:18;;;;;;;3.90;2.20;;;24.30;48.80;;;;;;5050885;28;20223;-42
2023/01/03 13:35:30;;;;;;;4.30;2.10;;;24.30;48.70;;;;;;5050919;28;20236;-42
2023/01/03 13:38:18;;;;;;;3.67;2.10;;;24.30;48.80;;;;;;5050793;28;20269;-41
2023/01/03 13:40:50;;;;;;;4.43;2.33;;;24.30;48.80;;;;;;5049871;28;20199;-40
2023/01/03 13:43:22;;;;;;;4.30;2.20;;;24.20;48.70;;;;;;5050340;28;20222;-43
2023/01/03 13:45:56;;;;;;;4.28;2.28;;;24.20;48.70;;;;;;5050573;28;20770;-45
2023/01/03 13:48:34;;;;;;;3.28;2.13;;;24.20;48.80;;;;;;5050422;28;20852;-39
2023/01/03 13:51:30;;;;;;;5.05;2.58;;;24.20;48.80;;;;;;5050919;28;20203;-40
2023/01/03 13:54:05;;;;;;;3.15;1.95;;;24.20;48.80;;;;;;5038694;28;20215;-42
2023/01/03 13:57:01;;;;;;;3.65;2.20;;;24.10;48.70;;;;;;5037199;28;20226;-41
2023/01/03 13:59:41;;;;;;;3.90;2.20;;;24.10;48.70;;;;;;5036170;28;20196;-42
2023/01/03 14:02:45;;;;;;;3.15;2.00;;;24.10;48.80;;;;;;5031306;28;20199;-40
2023/01/03 14:05:56;;;;;;;3.83;2.33;;;24.00;48.80;;;;;;5030604;28;20226;-43
2023/01/03 14:08:49;;;;;;;4.07;2.10;;;24.10;48.90;;;;;;5011165;28;20200;-44
2023/01/03 14:11:44;;;;;;;4.00;2.03;;;24.00;48.80;;;;;;5030629;28;20242;-42
2023/01/03 14:14:18;;;;;;;2.75;2.10;;;24.00;48.90;;;;;;5045665;28;20211;-42
2023/01/03 14:16:51;;;;;;;3.30;1.88;;;24.00;48.80;;;;;;5030373;28;20196;-43
2023/01/03 14:19:26;;;;;;;3.13;1.80;;;23.90;48.80;;;;;;5030139;28;20208;-39
2023/01/03 14:22:02;;;;;;;3.42;2.25;;;23.90;48.80;;;;;;5029893;28;20258;-43
2023/01/03 14:24:34;;;;;;;2.90;1.90;;;23.90;48.90;;;;;;5030504;28;20223;-41
2023/01/03 14:27:12;;;;;;;3.63;1.80;;;23.90;48.90;;;;;;5041523;28;20200;-43
2023/01/03 14:29:48;;;;;;;3.17;1.65;;;23.80;48.80;;;;;;5050520;28;20203;-42
2023/01/03 14:32:24;;;;;;;3.15;1.90;;;23.80;48.80;;;;;;5050181;28;20237;-40
2023/01/03 14:34:55;;;;;;;2.45;1.73;;;23.80;48.80;;;;;;5050039;28;20234;-39
2023/01/03 14:37:29;;;;;;;2.88;2.13;;;23.80;48.90;;;;;;5050560;28;20561;-43
2023/01/03 14:40:01;;;;;;;3.22;2.00;;;23.80;48.90;;;;;;5050247;28;20571;-43
2023/01/03 14:42:32;;;;;;;2.90;2.00;;;23.70;48.90;;;;;;5050205;28;20270;-46